sensor_id;sensor_type;location;lat;lon;timestamp;P1;durP1;ratioP1;P2;durP2;ratioP2
3543;SDS011;1786;52.870;9.578;2023-04-24T00:00:44;2.37;;;2.20;;
3543;SDS011;1786;52.870;9.578;2023-04-24T00:03:11;2.77;;;2.10;;
3543;SDS011;1786;52.870;9.578;2023-04-24T00:05:39;2.00;;;2.00;;
3543;SDS011;1786;52.870;9.578;2023-04-24T00:08:06;1.90;;;1.90;;
3543;SDS011;1786;52.870;9.578;2023-04-24T00:10:33;5.83;;;1.80;;
3543;SDS011;1786;52.870;9.578;2023-04-24T00:13:00;4.20;;;1.90;;
3543;SDS011;1786;52.870;9.578;2023-04-24T00:15:26;1.93;;;1.83;;
3543;SDS011;1786;52.870;9.578;2023-04-24T00:17:53;2.23;;;2.23;;
3543;SDS011;1786;52.870;9.578;2023-04-24T00:20:20;2.20;;;2.00;;
3543;SDS011;1786;52.870;9.578;2023-04-24T00:22:46;1.37;;;1.37;;
3543;SDS011;1786;52.870;9.578;2023-04-24T00:25:12;4.40;;;1.80;;
3543;SDS011;1786;52.870;9.578;2023-04-24T00:27:40;1.90;;;1.47;;
3543;SDS011;1786;52.870;9.578;2023-04-24T00:30:06;1.40;;;1.40;;
3543;SDS011;1786;52.870;9.578;2023-04-24T00:32:33;2.30;;;1.70;;
3543;SDS011;1786;52.870;9.578;2023-04-24T00:35:00;1.30;;;1.30;;
3543;SDS011;1786;52.870;9.578;2023-04-24T00:37:26;1.40;;;1.40;;
3543;SDS011;1786;52.870;9.578;2023-04-24T00:39:53;1.50;;;1.50;;
3543;SDS011;1786;52.870;9.578;2023-04-24T00:42:19;1.20;;;1.20;;
3543;SDS011;1786;52.870;9.578;2023-04-24T00:44:47;1.43;;;1.43;;
3543;SDS011;1786;52.870;9.578;2023-04-24T00:47:13;1.13;;;1.10;;
3543;SDS011;1786;52.870;9.578;2023-04-24T00:49:41;1.10;;;1.10;;
3543;SDS011;1786;52.870;9.578;2023-04-24T00:52:08;1.10;;;1.00;;
3543;SDS011;1786;52.870;9.578;2023-04-24T00:54:35;0.90;;;0.90;;
3543;SDS011;1786;52.870;9.578;2023-04-24T00:57:04;1.00;;;1.00;;
3543;SDS011;1786;52.870;9.578;2023-04-24T00:59:31;0.80;;;0.80;;
3543;SDS011;1786;52.870;9.578;2023-04-24T01:01:58;2.33;;;1.00;;
3543;SDS011;1786;52.870;9.578;2023-04-24T01:04:25;1.00;;;0.97;;
3543;SDS011;1786;52.870;9.578;2023-04-24T01:06:52;1.00;;;1.00;;
3543;SDS011;1786;52.870;9.578;2023-04-24T01:09:19;1.23;;;1.10;;
3543;SDS011;1786;52.870;9.578;2023-04-24T01:11:47;1.10;;;1.10;;
3543;SDS011;1786;52.870;9.578;2023-04-24T01:14:13;1.00;;;1.00;;
3543;SDS011;1786;52.870;9.578;2023-04-24T01:16:40;2.10;;;0.87;;
3543;SDS011;1786;52.870;9.578;2023-04-24T01:19:07;0.77;;;0.77;;
3543;SDS011;1786;52.870;9.578;2023-04-24T01:21:36;0.80;;;0.80;;
3543;SDS011;1786;52.870;9.578;2023-04-24T01:24:04;0.70;;;0.70;;
3543;SDS011;1786;52.870;9.578;2023-04-24T01:26:31;1.00;;;1.00;;
3543;SDS011;1786;52.870;9.578;2023-04-24T01:28:57;1.80;;;1.10;;
3543;SDS011;1786;52.870;9.578;2023-04-24T01:31:24;1.23;;;1.00;;
3543;SDS011;1786;52.870;9.578;2023-04-24T01:33:50;0.70;;;0.70;;
3543;SDS011;1786;52.870;9.578;2023-04-24T01:36:17;1.00;;;0.90;;
3543;SDS011;1786;52.870;9.578;2023-04-24T01:38:44;1.03;;;1.03;;
3543;SDS011;1786;52.870;9.578;2023-04-24T01:41:10;2.93;;;0.90;;
3543;SDS011;1786;52.870;9.578;2023-04-24T01:43:37;0.90;;;0.90;;
3543;SDS011;1786;52.870;9.578;2023-04-24T01:46:04;1.00;;;1.00;;
3543;SDS011;1786;52.870;9.578;2023-04-24T01:48:34;0.70;;;0.70;;
3543;SDS011;1786;52.870;9.578;2023-04-24T01:51:01;1.07;;;1.07;;
3543;SDS011;1786;52.870;9.578;2023-04-24T01:53:29;1.10;;;1.10;;
3543;SDS011;1786;52.870;9.578;2023-04-24T01:55:55;0.93;;;0.93;;
3543;SDS011;1786;52.870;9.578;2023-04-24T01:58:24;1.07;;;0.93;;
3543;SDS011;1786;52.870;9.578;2023-04-24T02:00:50;0.70;;;0.70;;
3543;SDS011;1786;52.870;9.578;2023-04-24T02:03:17;0.93;;;0.93;;
3543;SDS011;1786;52.870;9.578;2023-04-24T02:05:44;1.00;;;0.97;;
3543;SDS011;1786;52.870;9.578;2023-04-24T02:08:11;0.80;;;0.80;;
3543;SDS011;1786;52.870;9.578;2023-04-24T02:10:38;0.80;;;0.80;;
3543;SDS011;1786;52.870;9.578;2023-04-24T02:13:04;0.80;;;0.80;;
3543;SDS011;1786;52.870;9.578;2023-04-24T02:15:31;1.57;;;0.90;;
3543;SDS011;1786;52.870;9.578;2023-04-24T02:17:57;0.70;;;0.70;;
3543;SDS011;1786;52.870;9.578;2023-04-24T02:20:24;1.00;;;0.90;;
3543;SDS011;1786;52.870;9.578;2023-04-24T02:22:52;0.80;;;0.80;;
3543;SDS011;1786;52.870;9.578;2023-04-24T02:25:18;0.90;;;0.90;;
3543;SDS011;1786;52.870;9.578;2023-04-24T02:27:45;1.23;;;0.80;;
3543;SDS011;1786;52.870;9.578;2023-04-24T02:30:12;0.87;;;0.87;;
3543;SDS011;1786;52.870;9.578;2023-04-24T02:32:38;1.53;;;0.80;;
3543;SDS011;1786;52.870;9.578;2023-04-24T02:35:05;0.80;;;0.80;;
3543;SDS011;1786;52.870;9.578;2023-04-24T02:37:32;0.70;;;0.70;;
3543;SDS011;1786;52.870;9.578;2023-04-24T02:39:59;0.80;;;0.80;;
3543;SDS011;1786;52.870;9.578;2023-04-24T02:42:26;0.90;;;0.90;;
3543;SDS011;1786;52.870;9.578;2023-04-24T02:44:53;0.70;;;0.70;;
3543;SDS011;1786;52.870;9.578;2023-04-24T02:47:20;0.87;;;0.87;;
3543;SDS011;1786;52.870;9.578;2023-04-24T02:49:48;0.83;;;0.83;;
3543;SDS011;1786;52.870;9.578;2023-04-24T02:52:14;0.87;;;0.87;;
3543;SDS011;1786;52.870;9.578;2023-04-24T02:54:42;0.80;;;0.80;;
3543;SDS011;1786;52.870;9.578;2023-04-24T02:57:09;3.27;;;1.20;;
3543;SDS011;1786;52.870;9.578;2023-04-24T02:59:39;0.70;;;0.70;;
3543;SDS011;1786;52.870;9.578;2023-04-24T03:02:05;0.70;;;0.70;;
3543;SDS011;1786;52.870;9.578;2023-04-24T03:04:32;0.70;;;0.70;;
3543;SDS011;1786;52.870;9.578;2023-04-24T03:06:59;0.70;;;0.70;;
3543;SDS011;1786;52.870;9.578;2023-04-24T03:09:25;1.23;;;0.70;;
3543;SDS011;1786;52.870;9.578;2023-04-24T03:11:52;0.80;;;0.80;;
3543;SDS011;1786;52.870;9.578;2023-04-24T03:14:19;0.70;;;0.70;;
3543;SDS011;1786;52.870;9.578;2023-04-24T03:16:45;0.93;;;0.90;;
3543;SDS011;1786;52.870;9.578;2023-04-24T03:19:12;0.90;;;0.80;;
3543;SDS011;1786;52.870;9.578;2023-04-24T03:21:51;0.87;;;0.80;;
3543;SDS011;1786;52.870;9.578;2023-04-24T03:24:17;1.80;;;0.70;;
3543;SDS011;1786;52.870;9.578;2023-04-24T03:26:44;0.87;;;0.80;;
3543;SDS011;1786;52.870;9.578;2023-04-24T03:29:38;0.60;;;0.60;;
3543;SDS011;1786;52.870;9.578;2023-04-24T03:32:05;3.13;;;0.60;;
3543;SDS011;1786;52.870;9.578;2023-04-24T03:34:32;0.80;;;0.80;;
3543;SDS011;1786;52.870;9.578;2023-04-24T03:36:58;0.80;;;0.80;;
3543;SDS011;1786;52.870;9.578;2023-04-24T03:39:25;2.57;;;0.70;;
3543;SDS011;1786;52.870;9.578;2023-04-24T03:41:54;1.37;;;0.60;;
3543;SDS011;1786;52.870;9.578;2023-04-24T03:44:26;5.63;;;0.90;;
3543;SDS011;1786;52.870;9.578;2023-04-24T03:46:53;6.50;;;1.10;;
3543;SDS011;1786;52.870;9.578;2023-04-24T03:49:21;2.00;;;0.77;;
3543;SDS011;1786;52.870;9.578;2023-04-24T03:51:48;0.90;;;0.70;;
3543;SDS011;1786;52.870;9.578;2023-04-24T03:54:21;0.70;;;0.70;;
3543;SDS011;1786;52.870;9.578;2023-04-24T03:56:49;0.60;;;0.60;;
3543;SDS011;1786;52.870;9.578;2023-04-24T03:59:15;0.70;;;0.60;;
3543;SDS011;1786;52.870;9.578;2023-04-24T04:01:46;0.60;;;0.60;;
3543;SDS011;1786;52.870;9.578;2023-04-24T04:04:15;0.70;;;0.70;;
3543;SDS011;1786;52.870;9.578;2023-04-24T04:06:43;0.90;;;0.90;;
3543;SDS011;1786;52.870;9.578;2023-04-24T04:09:13;0.70;;;0.70;;
3543;SDS011;1786;52.870;9.578;2023-04-24T04:11:40;0.73;;;0.73;;
3543;SDS011;1786;52.870;9.578;2023-04-24T04:14:06;9.53;;;0.80;;
3543;SDS011;1786;52.870;9.578;2023-04-24T04:16:35;0.90;;;0.90;;
3543;SDS011;1786;52.870;9.578;2023-04-24T04:19:04;1.03;;;0.80;;
3543;SDS011;1786;52.870;9.578;2023-04-24T04:21:31;0.60;;;0.60;;
3543;SDS011;1786;52.870;9.578;2023-04-24T04:24:21;0.73;;;0.67;;
3543;SDS011;1786;52.870;9.578;2023-04-24T04:26:48;0.60;;;0.60;;
3543;SDS011;1786;52.870;9.578;2023-04-24T04:29:27;0.80;;;0.80;;
3543;SDS011;1786;52.870;9.578;2023-04-24T04:31:54;0.80;;;0.80;;
3543;SDS011;1786;52.870;9.578;2023-04-24T04:34:21;0.90;;;0.90;;
3543;SDS011;1786;52.870;9.578;2023-04-24T04:36:49;1.13;;;1.10;;
3543;SDS011;1786;52.870;9.578;2023-04-24T04:39:38;0.80;;;0.80;;
3543;SDS011;1786;52.870;9.578;2023-04-24T04:42:09;1.00;;;1.00;;
3543;SDS011;1786;52.870;9.578;2023-04-24T04:44:41;0.93;;;0.93;;
3543;SDS011;1786;52.870;9.578;2023-04-24T04:47:11;0.93;;;0.93;;
3543;SDS011;1786;52.870;9.578;2023-04-24T04:49:38;1.20;;;1.10;;
3543;SDS011;1786;52.870;9.578;2023-04-24T04:52:10;2.27;;;1.10;;
3543;SDS011;1786;52.870;9.578;2023-04-24T04:54:37;1.10;;;1.10;;
3543;SDS011;1786;52.870;9.578;2023-04-24T04:57:04;1.03;;;1.03;;
3543;SDS011;1786;52.870;9.578;2023-04-24T04:59:31;2.00;;;0.97;;
3543;SDS011;1786;52.870;9.578;2023-04-24T05:02:03;1.23;;;0.90;;
3543;SDS011;1786;52.870;9.578;2023-04-24T05:04:30;1.13;;;1.13;;
3543;SDS011;1786;52.870;9.578;2023-04-24T05:06:57;1.90;;;1.00;;
3543;SDS011;1786;52.870;9.578;2023-04-24T05:09:27;1.10;;;1.10;;
3543;SDS011;1786;52.870;9.578;2023-04-24T05:12:00;1.20;;;1.10;;
3543;SDS011;1786;52.870;9.578;2023-04-24T05:14:32;2.23;;;1.27;;
3543;SDS011;1786;52.870;9.578;2023-04-24T05:16:59;1.10;;;1.00;;
3543;SDS011;1786;52.870;9.578;2023-04-24T05:19:26;1.27;;;1.07;;
3543;SDS011;1786;52.870;9.578;2023-04-24T05:21:53;4.50;;;1.10;;
3543;SDS011;1786;52.870;9.578;2023-04-24T05:24:19;2.50;;;1.00;;
3543;SDS011;1786;52.870;9.578;2023-04-24T05:26:52;1.20;;;1.10;;
3543;SDS011;1786;52.870;9.578;2023-04-24T05:29:23;6.03;;;1.40;;
3543;SDS011;1786;52.870;9.578;2023-04-24T05:31:50;1.43;;;1.00;;
3543;SDS011;1786;52.870;9.578;2023-04-24T05:34:17;1.20;;;1.10;;
3543;SDS011;1786;52.870;9.578;2023-04-24T05:36:46;1.07;;;0.97;;
3543;SDS011;1786;52.870;9.578;2023-04-24T05:39:13;1.27;;;0.80;;
3543;SDS011;1786;52.870;9.578;2023-04-24T05:41:39;1.90;;;1.10;;
3543;SDS011;1786;52.870;9.578;2023-04-24T05:44:06;0.83;;;0.83;;
3543;SDS011;1786;52.870;9.578;2023-04-24T05:46:32;0.70;;;0.70;;
3543;SDS011;1786;52.870;9.578;2023-04-24T05:48:59;0.80;;;0.80;;
3543;SDS011;1786;52.870;9.578;2023-04-24T05:51:26;1.07;;;0.90;;
3543;SDS011;1786;52.870;9.578;2023-04-24T05:53:52;0.70;;;0.70;;
3543;SDS011;1786;52.870;9.578;2023-04-24T05:56:19;2.20;;;0.80;;
3543;SDS011;1786;52.870;9.578;2023-04-24T05:58:47;0.77;;;0.77;;
3543;SDS011;1786;52.870;9.578;2023-04-24T06:01:14;0.90;;;0.90;;
3543;SDS011;1786;52.870;9.578;2023-04-24T06:03:42;0.80;;;0.80;;
3543;SDS011;1786;52.870;9.578;2023-04-24T06:06:09;0.70;;;0.70;;
3543;SDS011;1786;52.870;9.578;2023-04-24T06:08:36;2.58;;;0.82;;
3543;SDS011;1786;52.870;9.578;2023-04-24T06:11:02;0.80;;;0.80;;
3543;SDS011;1786;52.870;9.578;2023-04-24T06:13:30;0.88;;;0.70;;
3543;SDS011;1786;52.870;9.578;2023-04-24T06:16:29;0.90;;;0.90;;
3543;SDS011;1786;52.870;9.578;2023-04-24T06:19:01;0.80;;;0.80;;
3543;SDS011;1786;52.870;9.578;2023-04-24T06:21:28;1.00;;;1.00;;
3543;SDS011;1786;52.870;9.578;2023-04-24T06:23:55;2.88;;;1.85;;
3543;SDS011;1786;52.870;9.578;2023-04-24T06:26:22;1.05;;;1.00;;
3543;SDS011;1786;52.870;9.578;2023-04-24T06:28:51;2.67;;;1.30;;
3543;SDS011;1786;52.870;9.578;2023-04-24T06:31:18;1.70;;;1.60;;
3543;SDS011;1786;52.870;9.578;2023-04-24T06:33:44;2.47;;;1.47;;
3543;SDS011;1786;52.870;9.578;2023-04-24T06:36:11;1.73;;;1.70;;
3543;SDS011;1786;52.870;9.578;2023-04-24T06:38:38;1.73;;;1.70;;
3543;SDS011;1786;52.870;9.578;2023-04-24T06:41:05;2.10;;;2.03;;
3543;SDS011;1786;52.870;9.578;2023-04-24T06:43:32;2.90;;;2.60;;
3543;SDS011;1786;52.870;9.578;2023-04-24T06:45:59;2.97;;;2.77;;
3543;SDS011;1786;52.870;9.578;2023-04-24T06:48:26;9.20;;;2.60;;
3543;SDS011;1786;52.870;9.578;2023-04-24T06:50:52;2.83;;;2.63;;
3543;SDS011;1786;52.870;9.578;2023-04-24T06:53:19;2.83;;;2.73;;
3543;SDS011;1786;52.870;9.578;2023-04-24T06:55:45;3.20;;;3.00;;
3543;SDS011;1786;52.870;9.578;2023-04-24T06:58:12;2.40;;;2.30;;
3543;SDS011;1786;52.870;9.578;2023-04-24T07:00:39;2.63;;;2.53;;
3543;SDS011;1786;52.870;9.578;2023-04-24T07:03:06;2.70;;;2.60;;
3543;SDS011;1786;52.870;9.578;2023-04-24T07:05:32;3.43;;;3.17;;
3543;SDS011;1786;52.870;9.578;2023-04-24T07:08:01;3.83;;;3.53;;
3543;SDS011;1786;52.870;9.578;2023-04-24T07:10:28;4.47;;;4.17;;
3543;SDS011;1786;52.870;9.578;2023-04-24T07:12:55;4.00;;;3.63;;
3543;SDS011;1786;52.870;9.578;2023-04-24T07:15:25;3.70;;;3.50;;
3543;SDS011;1786;52.870;9.578;2023-04-24T07:17:51;4.80;;;3.40;;
3543;SDS011;1786;52.870;9.578;2023-04-24T07:20:18;4.87;;;4.53;;
3543;SDS011;1786;52.870;9.578;2023-04-24T07:22:45;5.20;;;4.70;;
3543;SDS011;1786;52.870;9.578;2023-04-24T07:25:12;5.53;;;5.23;;
3543;SDS011;1786;52.870;9.578;2023-04-24T07:27:39;6.57;;;5.13;;
3543;SDS011;1786;52.870;9.578;2023-04-24T07:30:06;6.13;;;5.73;;
3543;SDS011;1786;52.870;9.578;2023-04-24T07:32:33;5.67;;;5.17;;
3543;SDS011;1786;52.870;9.578;2023-04-24T07:34:59;5.70;;;5.30;;
3543;SDS011;1786;52.870;9.578;2023-04-24T07:37:26;5.53;;;5.13;;
3543;SDS011;1786;52.870;9.578;2023-04-24T07:39:52;5.80;;;5.50;;
3543;SDS011;1786;52.870;9.578;2023-04-24T07:42:19;6.00;;;5.40;;
3543;SDS011;1786;52.870;9.578;2023-04-24T07:44:45;6.40;;;5.90;;
3543;SDS011;1786;52.870;9.578;2023-04-24T07:47:14;6.33;;;5.83;;
3543;SDS011;1786;52.870;9.578;2023-04-24T07:49:43;5.33;;;4.93;;
3543;SDS011;1786;52.870;9.578;2023-04-24T07:52:10;7.90;;;5.70;;
3543;SDS011;1786;52.870;9.578;2023-04-24T07:54:37;5.80;;;5.40;;
3543;SDS011;1786;52.870;9.578;2023-04-24T07:57:04;6.43;;;5.83;;
3543;SDS011;1786;52.870;9.578;2023-04-24T07:59:32;9.50;;;6.37;;
3543;SDS011;1786;52.870;9.578;2023-04-24T08:01:59;7.50;;;6.77;;
3543;SDS011;1786;52.870;9.578;2023-04-24T08:04:27;6.07;;;5.50;;
3543;SDS011;1786;52.870;9.578;2023-04-24T08:06:54;9.03;;;7.03;;
3543;SDS011;1786;52.870;9.578;2023-04-24T08:09:21;7.37;;;6.57;;
3543;SDS011;1786;52.870;9.578;2023-04-24T08:11:47;7.57;;;6.80;;
3543;SDS011;1786;52.870;9.578;2023-04-24T08:14:14;7.57;;;6.77;;
3543;SDS011;1786;52.870;9.578;2023-04-24T08:16:41;7.07;;;6.37;;
3543;SDS011;1786;52.870;9.578;2023-04-24T08:19:07;7.70;;;7.00;;
3543;SDS011;1786;52.870;9.578;2023-04-24T08:21:34;9.17;;;7.30;;
3543;SDS011;1786;52.870;9.578;2023-04-24T08:24:00;11.50;;;7.87;;
3543;SDS011;1786;52.870;9.578;2023-04-24T08:26:31;8.83;;;8.03;;
3543;SDS011;1786;52.870;9.578;2023-04-24T08:28:58;8.23;;;7.43;;
3543;SDS011;1786;52.870;9.578;2023-04-24T08:31:25;9.17;;;8.20;;
3543;SDS011;1786;52.870;9.578;2023-04-24T08:33:52;9.70;;;7.97;;
3543;SDS011;1786;52.870;9.578;2023-04-24T08:36:19;9.43;;;8.40;;
3543;SDS011;1786;52.870;9.578;2023-04-24T08:38:46;10.10;;;8.70;;
3543;SDS011;1786;52.870;9.578;2023-04-24T08:41:13;8.90;;;8.10;;
3543;SDS011;1786;52.870;9.578;2023-04-24T08:43:40;9.50;;;8.60;;
3543;SDS011;1786;52.870;9.578;2023-04-24T08:46:07;9.70;;;8.27;;
3543;SDS011;1786;52.870;9.578;2023-04-24T08:48:38;9.37;;;8.47;;
3543;SDS011;1786;52.870;9.578;2023-04-24T08:51:06;11.00;;;8.23;;
3543;SDS011;1786;52.870;9.578;2023-04-24T08:53:34;8.93;;;8.17;;
3543;SDS011;1786;52.870;9.578;2023-04-24T08:56:02;9.03;;;8.10;;
3543;SDS011;1786;52.870;9.578;2023-04-24T08:58:29;8.17;;;7.47;;
3543;SDS011;1786;52.870;9.578;2023-04-24T09:00:57;12.67;;;8.00;;
3543;SDS011;1786;52.870;9.578;2023-04-24T09:03:23;7.43;;;6.73;;
3543;SDS011;1786;52.870;9.578;2023-04-24T09:05:51;8.20;;;7.50;;
3543;SDS011;1786;52.870;9.578;2023-04-24T09:08:18;8.50;;;7.60;;
3543;SDS011;1786;52.870;9.578;2023-04-24T09:10:46;10.90;;;7.80;;
3543;SDS011;1786;52.870;9.578;2023-04-24T09:13:16;11.57;;;7.93;;
3543;SDS011;1786;52.870;9.578;2023-04-24T09:15:44;7.67;;;6.87;;
3543;SDS011;1786;52.870;9.578;2023-04-24T09:18:10;8.60;;;7.80;;
3543;SDS011;1786;52.870;9.578;2023-04-24T09:23:22;13.50;;;6.90;;
3543;SDS011;1786;52.870;9.578;2023-04-24T09:25:49;11.80;;;6.80;;
3543;SDS011;1786;52.870;9.578;2023-04-24T09:28:22;6.70;;;6.10;;
3543;SDS011;1786;52.870;9.578;2023-04-24T09:31:07;9.30;;;6.77;;
3543;SDS011;1786;52.870;9.578;2023-04-24T09:33:34;6.03;;;5.53;;
3543;SDS011;1786;52.870;9.578;2023-04-24T09:36:01;11.00;;;5.40;;
3543;SDS011;1786;52.870;9.578;2023-04-24T09:38:33;6.10;;;5.60;;
3543;SDS011;1786;52.870;9.578;2023-04-24T09:41:00;6.23;;;5.63;;
3543;SDS011;1786;52.870;9.578;2023-04-24T09:43:29;6.57;;;6.07;;
3543;SDS011;1786;52.870;9.578;2023-04-24T09:45:56;11.87;;;7.97;;
3543;SDS011;1786;52.870;9.578;2023-04-24T09:48:33;5.57;;;5.07;;
3543;SDS011;1786;52.870;9.578;2023-04-24T09:51:00;6.20;;;5.70;;
3543;SDS011;1786;52.870;9.578;2023-04-24T09:53:27;6.20;;;5.60;;
3543;SDS011;1786;52.870;9.578;2023-04-24T09:55:54;5.70;;;5.03;;
3543;SDS011;1786;52.870;9.578;2023-04-24T09:58:24;6.10;;;5.50;;
3543;SDS011;1786;52.870;9.578;2023-04-24T10:00:53;6.50;;;5.53;;
3543;SDS011;1786;52.870;9.578;2023-04-24T10:03:20;6.03;;;5.43;;
3543;SDS011;1786;52.870;9.578;2023-04-24T10:05:47;6.57;;;5.13;;
3543;SDS011;1786;52.870;9.578;2023-04-24T10:08:14;6.17;;;5.10;;
3543;SDS011;1786;52.870;9.578;2023-04-24T10:10:41;5.70;;;5.20;;
3543;SDS011;1786;52.870;9.578;2023-04-24T10:13:09;5.27;;;4.90;;
3543;SDS011;1786;52.870;9.578;2023-04-24T10:15:36;5.33;;;4.57;;
3543;SDS011;1786;52.870;9.578;2023-04-24T10:18:04;5.87;;;4.33;;
3543;SDS011;1786;52.870;9.578;2023-04-24T10:20:33;5.70;;;5.10;;
3543;SDS011;1786;52.870;9.578;2023-04-24T10:23:00;5.23;;;4.73;;
3543;SDS011;1786;52.870;9.578;2023-04-24T10:25:27;5.10;;;4.73;;
3543;SDS011;1786;52.870;9.578;2023-04-24T10:27:54;6.47;;;5.87;;
3543;SDS011;1786;52.870;9.578;2023-04-24T10:30:27;7.27;;;6.57;;
3543;SDS011;1786;52.870;9.578;2023-04-24T10:32:54;6.17;;;5.57;;
3543;SDS011;1786;52.870;9.578;2023-04-24T10:35:21;5.10;;;4.70;;
3543;SDS011;1786;52.870;9.578;2023-04-24T10:37:50;4.63;;;4.27;;
3543;SDS011;1786;52.870;9.578;2023-04-24T10:40:17;4.90;;;4.50;;
3543;SDS011;1786;52.870;9.578;2023-04-24T10:42:48;4.90;;;4.47;;
3543;SDS011;1786;52.870;9.578;2023-04-24T10:45:19;4.40;;;3.83;;
3543;SDS011;1786;52.870;9.578;2023-04-24T10:48:04;4.77;;;4.47;;
3543;SDS011;1786;52.870;9.578;2023-04-24T10:50:42;3.73;;;3.60;;
3543;SDS011;1786;52.870;9.578;2023-04-24T10:55:49;2.87;;;2.77;;
3543;SDS011;1786;52.870;9.578;2023-04-24T10:58:17;4.07;;;3.67;;
3543;SDS011;1786;52.870;9.578;2023-04-24T11:00:57;3.40;;;3.13;;
3543;SDS011;1786;52.870;9.578;2023-04-24T11:03:29;3.07;;;2.77;;
3543;SDS011;1786;52.870;9.578;2023-04-24T11:05:57;3.03;;;2.83;;
3543;SDS011;1786;52.870;9.578;2023-04-24T11:08:31;2.80;;;2.70;;
3543;SDS011;1786;52.870;9.578;2023-04-24T11:10:59;3.00;;;2.80;;
3543;SDS011;1786;52.870;9.578;2023-04-24T11:13:27;3.30;;;3.00;;
3543;SDS011;1786;52.870;9.578;2023-04-24T11:16:13;3.37;;;3.27;;
3543;SDS011;1786;52.870;9.578;2023-04-24T11:18:41;3.10;;;3.00;;
3543;SDS011;1786;52.870;9.578;2023-04-24T11:21:12;9.47;;;3.97;;
3543;SDS011;1786;52.870;9.578;2023-04-24T11:23:39;6.00;;;2.83;;
3543;SDS011;1786;52.870;9.578;2023-04-24T11:26:09;2.70;;;2.60;;
3543;SDS011;1786;52.870;9.578;2023-04-24T11:28:36;2.97;;;2.77;;
3543;SDS011;1786;52.870;9.578;2023-04-24T11:33:49;2.20;;;2.10;;
3543;SDS011;1786;52.870;9.578;2023-04-24T11:36:15;2.17;;;2.07;;
3543;SDS011;1786;52.870;9.578;2023-04-24T11:38:42;2.13;;;2.07;;
3543;SDS011;1786;52.870;9.578;2023-04-24T11:41:08;2.23;;;2.13;;
3543;SDS011;1786;52.870;9.578;2023-04-24T11:43:36;1.80;;;1.80;;
3543;SDS011;1786;52.870;9.578;2023-04-24T11:46:03;1.57;;;1.50;;
3543;SDS011;1786;52.870;9.578;2023-04-24T11:48:34;1.70;;;1.70;;
3543;SDS011;1786;52.870;9.578;2023-04-24T11:51:02;2.10;;;1.90;;
3543;SDS011;1786;52.870;9.578;2023-04-24T11:53:30;1.50;;;1.40;;
3543;SDS011;1786;52.870;9.578;2023-04-24T11:55:56;1.60;;;1.60;;
3543;SDS011;1786;52.870;9.578;2023-04-24T11:58:23;1.60;;;1.60;;
3543;SDS011;1786;52.870;9.578;2023-04-24T12:00:55;2.13;;;2.03;;
3543;SDS011;1786;52.870;9.578;2023-04-24T12:03:22;1.53;;;1.53;;
3543;SDS011;1786;52.870;9.578;2023-04-24T12:05:49;6.83;;;1.87;;
3543;SDS011;1786;52.870;9.578;2023-04-24T12:08:28;2.00;;;1.90;;
3543;SDS011;1786;52.870;9.578;2023-04-24T12:10:55;1.60;;;1.60;;
3543;SDS011;1786;52.870;9.578;2023-04-24T12:13:22;1.33;;;1.33;;
3543;SDS011;1786;52.870;9.578;2023-04-24T12:15:49;1.60;;;1.50;;
3543;SDS011;1786;52.870;9.578;2023-04-24T12:18:17;1.37;;;1.37;;
3543;SDS011;1786;52.870;9.578;2023-04-24T12:20:44;1.97;;;1.87;;
3543;SDS011;1786;52.870;9.578;2023-04-24T12:23:11;1.60;;;1.60;;
3543;SDS011;1786;52.870;9.578;2023-04-24T12:25:38;2.73;;;1.40;;
3543;SDS011;1786;52.870;9.578;2023-04-24T12:30:33;2.30;;;2.20;;
3543;SDS011;1786;52.870;9.578;2023-04-24T12:33:00;2.00;;;1.90;;
3543;SDS011;1786;52.870;9.578;2023-04-24T12:35:27;2.23;;;2.13;;
3543;SDS011;1786;52.870;9.578;2023-04-24T12:37:54;2.50;;;2.50;;
3543;SDS011;1786;52.870;9.578;2023-04-24T12:40:25;3.83;;;2.57;;
3543;SDS011;1786;52.870;9.578;2023-04-24T12:42:52;3.17;;;2.27;;
3543;SDS011;1786;52.870;9.578;2023-04-24T12:45:20;2.80;;;2.50;;
3543;SDS011;1786;52.870;9.578;2023-04-24T12:47:49;2.90;;;2.70;;
3543;SDS011;1786;52.870;9.578;2023-04-24T12:50:16;2.10;;;2.00;;
3543;SDS011;1786;52.870;9.578;2023-04-24T12:52:43;2.57;;;2.47;;
3543;SDS011;1786;52.870;9.578;2023-04-24T12:55:10;2.00;;;2.00;;
3543;SDS011;1786;52.870;9.578;2023-04-24T12:57:38;1.80;;;1.80;;
3543;SDS011;1786;52.870;9.578;2023-04-24T13:00:06;2.07;;;1.97;;
3543;SDS011;1786;52.870;9.578;2023-04-24T13:02:33;2.20;;;2.20;;
3543;SDS011;1786;52.870;9.578;2023-04-24T13:05:00;1.87;;;1.83;;
3543;SDS011;1786;52.870;9.578;2023-04-24T13:07:28;1.60;;;1.60;;
3543;SDS011;1786;52.870;9.578;2023-04-24T13:09:55;1.40;;;1.40;;
3543;SDS011;1786;52.870;9.578;2023-04-24T13:12:22;1.40;;;1.40;;
3543;SDS011;1786;52.870;9.578;2023-04-24T13:14:50;0.90;;;0.90;;
3543;SDS011;1786;52.870;9.578;2023-04-24T13:17:16;1.20;;;1.20;;
3543;SDS011;1786;52.870;9.578;2023-04-24T13:19:44;4.00;;;1.10;;
3543;SDS011;1786;52.870;9.578;2023-04-24T13:22:11;9.33;;;1.40;;
3543;SDS011;1786;52.870;9.578;2023-04-24T13:24:38;1.30;;;1.30;;
3543;SDS011;1786;52.870;9.578;2023-04-24T13:27:07;1.23;;;1.13;;
3543;SDS011;1786;52.870;9.578;2023-04-24T13:29:35;2.93;;;1.60;;
3543;SDS011;1786;52.870;9.578;2023-04-24T13:32:01;1.30;;;1.30;;
3543;SDS011;1786;52.870;9.578;2023-04-24T13:34:28;0.93;;;0.93;;
3543;SDS011;1786;52.870;9.578;2023-04-24T13:36:55;1.10;;;1.10;;
3543;SDS011;1786;52.870;9.578;2023-04-24T13:39:22;2.07;;;1.20;;
3543;SDS011;1786;52.870;9.578;2023-04-24T13:41:49;0.97;;;0.97;;
3543;SDS011;1786;52.870;9.578;2023-04-24T13:44:16;1.00;;;1.00;;
3543;SDS011;1786;52.870;9.578;2023-04-24T13:46:44;1.33;;;1.00;;
3543;SDS011;1786;52.870;9.578;2023-04-24T13:49:11;2.43;;;1.10;;
3543;SDS011;1786;52.870;9.578;2023-04-24T13:51:38;4.03;;;1.10;;
3543;SDS011;1786;52.870;9.578;2023-04-24T13:54:04;2.23;;;1.90;;
3543;SDS011;1786;52.870;9.578;2023-04-24T13:56:31;2.60;;;2.50;;
3543;SDS011;1786;52.870;9.578;2023-04-24T13:58:57;3.67;;;3.37;;
3543;SDS011;1786;52.870;9.578;2023-04-24T14:01:24;4.37;;;4.10;;
3543;SDS011;1786;52.870;9.578;2023-04-24T14:03:51;4.57;;;4.27;;
3543;SDS011;1786;52.870;9.578;2023-04-24T14:06:19;4.00;;;3.70;;
3543;SDS011;1786;52.870;9.578;2023-04-24T14:08:46;4.37;;;3.77;;
3543;SDS011;1786;52.870;9.578;2023-04-24T14:11:13;3.70;;;3.37;;
3543;SDS011;1786;52.870;9.578;2023-04-24T14:13:40;3.90;;;3.60;;
3543;SDS011;1786;52.870;9.578;2023-04-24T14:16:08;4.03;;;3.60;;
3543;SDS011;1786;52.870;9.578;2023-04-24T14:18:34;6.10;;;3.83;;
3543;SDS011;1786;52.870;9.578;2023-04-24T14:21:03;6.87;;;3.47;;
3543;SDS011;1786;52.870;9.578;2023-04-24T14:23:30;4.10;;;3.80;;
3543;SDS011;1786;52.870;9.578;2023-04-24T14:25:57;5.77;;;3.77;;
3543;SDS011;1786;52.870;9.578;2023-04-24T14:28:24;9.13;;;3.70;;
3543;SDS011;1786;52.870;9.578;2023-04-24T14:30:51;3.60;;;3.30;;
3543;SDS011;1786;52.870;9.578;2023-04-24T14:33:19;5.53;;;3.20;;
3543;SDS011;1786;52.870;9.578;2023-04-24T14:35:45;3.83;;;3.43;;
3543;SDS011;1786;52.870;9.578;2023-04-24T14:38:15;3.00;;;2.77;;
3543;SDS011;1786;52.870;9.578;2023-04-24T14:40:41;5.03;;;3.30;;
3543;SDS011;1786;52.870;9.578;2023-04-24T14:43:11;6.80;;;3.30;;
3543;SDS011;1786;52.870;9.578;2023-04-24T14:45:37;2.87;;;2.67;;
3543;SDS011;1786;52.870;9.578;2023-04-24T14:48:04;3.23;;;3.03;;
3543;SDS011;1786;52.870;9.578;2023-04-24T14:50:31;5.27;;;2.70;;
3543;SDS011;1786;52.870;9.578;2023-04-24T14:52:57;10.70;;;3.17;;
3543;SDS011;1786;52.870;9.578;2023-04-24T14:55:24;4.70;;;2.90;;
3543;SDS011;1786;52.870;9.578;2023-04-24T14:57:52;4.33;;;3.13;;
3543;SDS011;1786;52.870;9.578;2023-04-24T15:00:18;3.53;;;3.23;;
3543;SDS011;1786;52.870;9.578;2023-04-24T15:02:48;3.50;;;2.80;;
3543;SDS011;1786;52.870;9.578;2023-04-24T15:05:14;4.80;;;3.40;;
3543;SDS011;1786;52.870;9.578;2023-04-24T15:07:42;3.77;;;2.73;;
3543;SDS011;1786;52.870;9.578;2023-04-24T15:10:08;3.33;;;3.00;;
3543;SDS011;1786;52.870;9.578;2023-04-24T15:12:35;3.30;;;3.10;;
3543;SDS011;1786;52.870;9.578;2023-04-24T15:15:02;6.37;;;3.10;;
3543;SDS011;1786;52.870;9.578;2023-04-24T15:17:30;4.03;;;3.70;;
3543;SDS011;1786;52.870;9.578;2023-04-24T15:19:56;6.57;;;3.93;;
3543;SDS011;1786;52.870;9.578;2023-04-24T15:22:23;3.83;;;3.10;;
3543;SDS011;1786;52.870;9.578;2023-04-24T15:24:50;4.07;;;2.70;;
3543;SDS011;1786;52.870;9.578;2023-04-24T15:27:16;7.70;;;4.70;;
3543;SDS011;1786;52.870;9.578;2023-04-24T15:29:43;4.63;;;2.60;;